sensor_id;sensor_type;location;lat;lon;timestamp;temperature;humidity
40996;DHT22;26723;57.478;12.066;2023-05-07T00:01:16;5.70;99.90
40996;DHT22;26723;57.478;12.066;2023-05-07T00:04:27;5.60;99.90
40996;DHT22;26723;57.478;12.066;2023-05-07T00:07:36;5.60;99.90
40996;DHT22;26723;57.478;12.066;2023-05-07T00:10:44;5.50;99.90
40996;DHT22;26723;57.478;12.066;2023-05-07T00:13:53;5.40;99.90
40996;DHT22;26723;57.478;12.066;2023-05-07T00:17:02;5.30;99.90
40996;DHT22;26723;57.478;12.066;2023-05-07T00:20:12;5.30;99.90
40996;DHT22;26723;57.478;12.066;2023-05-07T00:23:20;5.20;99.90
40996;DHT22;26723;57.478;12.066;2023-05-07T00:26:29;5.30;99.90
40996;DHT22;26723;57.478;12.066;2023-05-07T00:29:37;5.30;99.90
40996;DHT22;26723;57.478;12.066;2023-05-07T00:32:45;5.20;99.90
40996;DHT22;26723;57.478;12.066;2023-05-07T00:35:57;5.10;99.90
40996;DHT22;26723;57.478;12.066;2023-05-07T00:39:07;5.00;99.90
40996;DHT22;26723;57.478;12.066;2023-05-07T00:42:16;4.90;99.90
40996;DHT22;26723;57.478;12.066;2023-05-07T00:45:26;4.80;99.90
40996;DHT22;26723;57.478;12.066;2023-05-07T00:48:35;4.70;99.90
40996;DHT22;26723;57.478;12.066;2023-05-07T00:51:45;4.70;99.90
40996;DHT22;26723;57.478;12.066;2023-05-07T00:54:54;4.60;99.90
40996;DHT22;26723;57.478;12.066;2023-05-07T00:58:03;4.50;99.90
40996;DHT22;26723;57.478;12.066;2023-05-07T01:01:33;4.40;99.90
40996;DHT22;26723;57.478;12.066;2023-05-07T01:04:44;4.30;99.90
40996;DHT22;26723;57.478;12.066;2023-05-07T01:07:55;4.30;99.90
40996;DHT22;26723;57.478;12.066;2023-05-07T01:11:05;4.30;99.90
40996;DHT22;26723;57.478;12.066;2023-05-07T01:14:14;4.30;99.90
40996;DHT22;26723;57.478;12.066;2023-05-07T01:17:23;4.20;99.90
40996;DHT22;26723;57.478;12.066;2023-05-07T01:20:32;4.10;99.90
40996;DHT22;26723;57.478;12.066;2023-05-07T01:23:43;4.00;99.90
40996;DHT22;26723;57.478;12.066;2023-05-07T01:26:54;4.00;99.90
40996;DHT22;26723;57.478;12.066;2023-05-07T01:30:06;3.70;99.90
40996;DHT22;26723;57.478;12.066;2023-05-07T01:33:20;3.60;99.90
40996;DHT22;26723;57.478;12.066;2023-05-07T01:36:30;3.50;99.90
40996;DHT22;26723;57.478;12.066;2023-05-07T01:39:40;3.50;99.90
40996;DHT22;26723;57.478;12.066;2023-05-07T01:42:49;3.40;99.90
40996;DHT22;26723;57.478;12.066;2023-05-07T01:45:58;3.40;99.90
40996;DHT22;26723;57.478;12.066;2023-05-07T01:49:08;3.40;99.90
40996;DHT22;26723;57.478;12.066;2023-05-07T01:52:17;3.40;99.90
40996;DHT22;26723;57.478;12.066;2023-05-07T01:55:27;3.50;99.90
40996;DHT22;26723;57.478;12.066;2023-05-07T01:58:36;3.50;99.90
40996;DHT22;26723;57.478;12.066;2023-05-07T02:01:45;3.50;99.90
40996;DHT22;26723;57.478;12.066;2023-05-07T02:04:54;3.50;99.90
40996;DHT22;26723;57.478;12.066;2023-05-07T02:08:03;3.40;99.90
40996;DHT22;26723;57.478;12.066;2023-05-07T02:11:13;3.40;99.90
40996;DHT22;26723;57.478;12.066;2023-05-07T02:14:22;3.40;99.90
40996;DHT22;26723;57.478;12.066;2023-05-07T02:17:30;3.30;99.90
40996;DHT22;26723;57.478;12.066;2023-05-07T02:20:40;3.20;99.90
40996;DHT22;26723;57.478;12.066;2023-05-07T02:23:48;3.20;99.90
40996;DHT22;26723;57.478;12.066;2023-05-07T02:26:59;3.20;99.90
40996;DHT22;26723;57.478;12.066;2023-05-07T02:30:08;3.20;99.90
40996;DHT22;26723;57.478;12.066;2023-05-07T02:33:17;3.30;99.90
40996;DHT22;26723;57.478;12.066;2023-05-07T02:36:26;3.30;99.90
40996;DHT22;26723;57.478;12.066;2023-05-07T02:39:44;3.30;99.90
40996;DHT22;26723;57.478;12.066;2023-05-07T02:42:54;3.30;99.90
40996;DHT22;26723;57.478;12.066;2023-05-07T02:46:03;3.20;99.90
40996;DHT22;26723;57.478;12.066;2023-05-07T02:49:14;3.10;99.90
40996;DHT22;26723;57.478;12.066;2023-05-07T02:52:23;3.10;99.90
40996;DHT22;26723;57.478;12.066;2023-05-07T02:55:32;3.10;99.90
40996;DHT22;26723;57.478;12.066;2023-05-07T02:58:42;3.10;99.90
40996;DHT22;26723;57.478;12.066;2023-05-07T03:01:52;3.10;99.90
40996;DHT22;26723;57.478;12.066;2023-05-07T03:05:00;3.00;99.90
40996;DHT22;26723;57.478;12.066;2023-05-07T03:08:09;3.10;99.90
40996;DHT22;26723;57.478;12.066;2023-05-07T03:11:18;3.10;99.90
40996;DHT22;26723;57.478;12.066;2023-05-07T03:14:28;3.00;99.90
40996;DHT22;26723;57.478;12.066;2023-05-07T03:17:36;3.00;99.90
40996;DHT22;26723;57.478;12.066;2023-05-07T03:20:47;2.90;99.90
40996;DHT22;26723;57.478;12.066;2023-05-07T03:23:57;2.90;99.90
40996;DHT22;26723;57.478;12.066;2023-05-07T03:27:06;2.90;99.90
40996;DHT22;26723;57.478;12.066;2023-05-07T03:30:16;2.90;99.90
40996;DHT22;26723;57.478;12.066;2023-05-07T03:33:25;2.90;99.90
40996;DHT22;26723;57.478;12.066;2023-05-07T03:36:35;2.90;99.90
40996;DHT22;26723;57.478;12.066;2023-05-07T03:39:46;2.90;99.90
40996;DHT22;26723;57.478;12.066;2023-05-07T03:42:55;2.80;99.90
40996;DHT22;26723;57.478;12.066;2023-05-07T03:46:07;2.80;99.90
40996;DHT22;26723;57.478;12.066;2023-05-07T03:49:16;2.80;99.90
40996;DHT22;26723;57.478;12.066;2023-05-07T03:52:24;2.80;99.90
40996;DHT22;26723;57.478;12.066;2023-05-07T03:55:36;2.80;99.90
40996;DHT22;26723;57.478;12.066;2023-05-07T03:58:47;2.90;99.90
40996;DHT22;26723;57.478;12.066;2023-05-07T04:01:58;2.90;99.90
40996;DHT22;26723;57.478;12.066;2023-05-07T04:05:11;2.90;99.90
40996;DHT22;26723;57.478;12.066;2023-05-07T04:08:20;3.00;99.90
40996;DHT22;26723;57.478;12.066;2023-05-07T04:11:32;3.00;99.90
40996;DHT22;26723;57.478;12.066;2023-05-07T04:14:44;3.00;99.90
40996;DHT22;26723;57.478;12.066;2023-05-07T04:17:56;3.10;99.90
40996;DHT22;26723;57.478;12.066;2023-05-07T04:21:05;3.10;99.90
40996;DHT22;26723;57.478;12.066;2023-05-07T04:24:17;3.10;99.90
40996;DHT22;26723;57.478;12.066;2023-05-07T04:27:26;3.20;99.90
40996;DHT22;26723;57.478;12.066;2023-05-07T04:30:36;3.20;99.90
40996;DHT22;26723;57.478;12.066;2023-05-07T04:33:48;3.30;99.90
40996;DHT22;26723;57.478;12.066;2023-05-07T04:36:59;3.30;99.90
40996;DHT22;26723;57.478;12.066;2023-05-07T04:40:10;3.40;99.90
40996;DHT22;26723;57.478;12.066;2023-05-07T04:43:19;3.40;99.90
40996;DHT22;26723;57.478;12.066;2023-05-07T04:46:30;3.30;99.90
40996;DHT22;26723;57.478;12.066;2023-05-07T04:49:40;3.40;99.90
40996;DHT22;26723;57.478;12.066;2023-05-07T04:52:50;3.50;99.90
40996;DHT22;26723;57.478;12.066;2023-05-07T04:56:03;3.50;99.90
40996;DHT22;26723;57.478;12.066;2023-05-07T04:59:19;3.60;99.90
40996;DHT22;26723;57.478;12.066;2023-05-07T05:02:29;3.70;99.90
40996;DHT22;26723;57.478;12.066;2023-05-07T05:05:40;3.70;99.90
40996;DHT22;26723;57.478;12.066;2023-05-07T05:08:48;3.80;99.90
40996;DHT22;26723;57.478;12.066;2023-05-07T05:11:57;3.90;99.90
40996;DHT22;26723;57.478;12.066;2023-05-07T05:15:07;3.90;99.90
40996;DHT22;26723;57.478;12.066;2023-05-07T05:18:17;4.10;99.90
40996;DHT22;26723;57.478;12.066;2023-05-07T05:21:27;4.10;99.90
40996;DHT22;26723;57.478;12.066;2023-05-07T05:24:42;4.30;99.90
40996;DHT22;26723;57.478;12.066;2023-05-07T05:27:51;4.40;99.90
40996;DHT22;26723;57.478;12.066;2023-05-07T05:30:59;4.50;99.90
40996;DHT22;26723;57.478;12.066;2023-05-07T05:34:12;4.60;99.90
40996;DHT22;26723;57.478;12.066;2023-05-07T05:37:23;4.70;99.90
40996;DHT22;26723;57.478;12.066;2023-05-07T05:40:36;4.90;99.90
40996;DHT22;26723;57.478;12.066;2023-05-07T05:43:46;5.00;99.90
40996;DHT22;26723;57.478;12.066;2023-05-07T05:46:54;5.20;99.90
40996;DHT22;26723;57.478;12.066;2023-05-07T05:50:06;5.30;99.90
40996;DHT22;26723;57.478;12.066;2023-05-07T05:53:20;5.50;99.90
40996;DHT22;26723;57.478;12.066;2023-05-07T05:56:31;5.70;99.90
40996;DHT22;26723;57.478;12.066;2023-05-07T05:59:40;5.80;99.90
40996;DHT22;26723;57.478;12.066;2023-05-07T06:02:48;6.00;99.90
40996;DHT22;26723;57.478;12.066;2023-05-07T06:06:02;6.20;99.90
40996;DHT22;26723;57.478;12.066;2023-05-07T06:09:12;6.50;99.90
40996;DHT22;26723;57.478;12.066;2023-05-07T06:12:23;6.90;99.90
40996;DHT22;26723;57.478;12.066;2023-05-07T06:15:33;7.30;99.90
40996;DHT22;26723;57.478;12.066;2023-05-07T06:18:47;8.10;99.90
40996;DHT22;26723;57.478;12.066;2023-05-07T06:22:00;11.20;99.90
40996;DHT22;26723;57.478;12.066;2023-05-07T06:25:17;13.70;99.90
40996;DHT22;26723;57.478;12.066;2023-05-07T06:28:26;15.20;96.30
40996;DHT22;26723;57.478;12.066;2023-05-07T06:31:35;15.90;95.10
40996;DHT22;26723;57.478;12.066;2023-05-07T06:34:47;17.40;92.20
40996;DHT22;26723;57.478;12.066;2023-05-07T06:37:56;17.10;90.50
40996;DHT22;26723;57.478;12.066;2023-05-07T06:41:08;17.70;89.10
40996;DHT22;26723;57.478;12.066;2023-05-07T06:44:18;18.40;85.20
40996;DHT22;26723;57.478;12.066;2023-05-07T06:47:37;19.10;83.70
40996;DHT22;26723;57.478;12.066;2023-05-07T06:50:47;19.00;81.00
40996;DHT22;26723;57.478;12.066;2023-05-07T06:53:55;17.90;79.90
40996;DHT22;26723;57.478;12.066;2023-05-07T06:57:05;18.10;81.80
40996;DHT22;26723;57.478;12.066;2023-05-07T07:00:15;16.70;85.00
40996;DHT22;26723;57.478;12.066;2023-05-07T07:03:30;15.90;85.70
40996;DHT22;26723;57.478;12.066;2023-05-07T07:06:39;15.70;86.10
40996;DHT22;26723;57.478;12.066;2023-05-07T07:09:50;15.80;88.00
40996;DHT22;26723;57.478;12.066;2023-05-07T07:13:00;15.90;87.90
40996;DHT22;26723;57.478;12.066;2023-05-07T07:16:09;16.20;89.60
40996;DHT22;26723;57.478;12.066;2023-05-07T07:19:18;16.30;86.60
40996;DHT22;26723;57.478;12.066;2023-05-07T07:22:31;16.10;85.20
40996;DHT22;26723;57.478;12.066;2023-05-07T07:25:40;16.20;88.80
40996;DHT22;26723;57.478;12.066;2023-05-07T07:28:51;16.50;86.30
40996;DHT22;26723;57.478;12.066;2023-05-07T07:32:01;16.80;84.10
40996;DHT22;26723;57.478;12.066;2023-05-07T07:35:11;17.50;90.00
40996;DHT22;26723;57.478;12.066;2023-05-07T07:38:20;18.10;84.40
40996;DHT22;26723;57.478;12.066;2023-05-07T07:41:28;17.40;83.20
40996;DHT22;26723;57.478;12.066;2023-05-07T07:44:41;17.40;85.50
40996;DHT22;26723;57.478;12.066;2023-05-07T07:47:52;18.00;80.90
40996;DHT22;26723;57.478;12.066;2023-05-07T07:51:01;17.70;80.50
40996;DHT22;26723;57.478;12.066;2023-05-07T07:54:10;17.80;80.90
40996;DHT22;26723;57.478;12.066;2023-05-07T07:57:19;17.70;80.80
40996;DHT22;26723;57.478;12.066;2023-05-07T08:00:29;18.90;83.20
40996;DHT22;26723;57.478;12.066;2023-05-07T08:03:38;20.30;81.70
40996;DHT22;26723;57.478;12.066;2023-05-07T08:06:48;20.80;77.70
40996;DHT22;26723;57.478;12.066;2023-05-07T08:09:56;19.30;77.70
40996;DHT22;26723;57.478;12.066;2023-05-07T08:13:06;19.60;77.20
40996;DHT22;26723;57.478;12.066;2023-05-07T08:16:18;20.20;74.50
40996;DHT22;26723;57.478;12.066;2023-05-07T08:19:29;20.50;73.40
40996;DHT22;26723;57.478;12.066;2023-05-07T08:22:37;20.30;73.50
40996;DHT22;26723;57.478;12.066;2023-05-07T08:25:47;19.80;73.70
40996;DHT22;26723;57.478;12.066;2023-05-07T08:28:56;19.90;73.40
40996;DHT22;26723;57.478;12.066;2023-05-07T08:32:07;20.80;71.10
40996;DHT22;26723;57.478;12.066;2023-05-07T08:35:15;19.80;69.90
40996;DHT22;26723;57.478;12.066;2023-05-07T08:38:24;20.00;68.50
40996;DHT22;26723;57.478;12.066;2023-05-07T08:41:32;20.10;68.30
40996;DHT22;26723;57.478;12.066;2023-05-07T08:44:45;20.00;65.30
40996;DHT22;26723;57.478;12.066;2023-05-07T08:47:59;20.70;66.80
40996;DHT22;26723;57.478;12.066;2023-05-07T08:51:14;20.70;63.60
40996;DHT22;26723;57.478;12.066;2023-05-07T08:54:27;21.70;65.00
40996;DHT22;26723;57.478;12.066;2023-05-07T08:57:36;21.60;64.20
40996;DHT22;26723;57.478;12.066;2023-05-07T09:00:50;20.60;64.00
40996;DHT22;26723;57.478;12.066;2023-05-07T09:04:04;20.60;65.10
40996;DHT22;26723;57.478;12.066;2023-05-07T09:07:15;20.90;65.40
40996;DHT22;26723;57.478;12.066;2023-05-07T09:10:23;20.00;63.80
40996;DHT22;26723;57.478;12.066;2023-05-07T09:13:32;20.80;65.10
40996;DHT22;26723;57.478;12.066;2023-05-07T09:16:43;20.90;65.80
40996;DHT22;26723;57.478;12.066;2023-05-07T09:19:54;21.40;62.40
40996;DHT22;26723;57.478;12.066;2023-05-07T09:23:03;21.30;64.80
40996;DHT22;26723;57.478;12.066;2023-05-07T09:26:11;21.60;66.30
40996;DHT22;26723;57.478;12.066;2023-05-07T09:29:21;21.00;62.60
40996;DHT22;26723;57.478;12.066;2023-05-07T09:32:32;20.70;63.90
40996;DHT22;26723;57.478;12.066;2023-05-07T09:35:43;20.90;62.80
40996;DHT22;26723;57.478;12.066;2023-05-07T09:38:59;20.30;64.70
40996;DHT22;26723;57.478;12.066;2023-05-07T09:42:09;20.50;65.40
40996;DHT22;26723;57.478;12.066;2023-05-07T09:45:22;20.70;64.00
40996;DHT22;26723;57.478;12.066;2023-05-07T09:48:36;20.50;63.80
40996;DHT22;26723;57.478;12.066;2023-05-07T09:51:50;20.80;66.80
40996;DHT22;26723;57.478;12.066;2023-05-07T09:55:02;20.90;63.00
40996;DHT22;26723;57.478;12.066;2023-05-07T09:58:15;21.00;64.20
40996;DHT22;26723;57.478;12.066;2023-05-07T10:01:25;20.80;64.00
40996;DHT22;26723;57.478;12.066;2023-05-07T10:04:35;20.70;62.80
40996;DHT22;26723;57.478;12.066;2023-05-07T10:07:46;20.50;63.30
40996;DHT22;26723;57.478;12.066;2023-05-07T10:10:55;20.60;66.50
40996;DHT22;26723;57.478;12.066;2023-05-07T10:14:06;20.50;63.30
40996;DHT22;26723;57.478;12.066;2023-05-07T10:17:16;20.60;63.50
40996;DHT22;26723;57.478;12.066;2023-05-07T10:20:27;20.70;61.50
40996;DHT22;26723;57.478;12.066;2023-05-07T10:23:41;20.30;61.90
40996;DHT22;26723;57.478;12.066;2023-05-07T10:26:53;20.40;65.40
40996;DHT22;26723;57.478;12.066;2023-05-07T10:30:14;20.10;62.60
40996;DHT22;26723;57.478;12.066;2023-05-07T10:33:27;20.10;62.20
40996;DHT22;26723;57.478;12.066;2023-05-07T10:36:38;20.30;61.30
40996;DHT22;26723;57.478;12.066;2023-05-07T10:39:50;20.00;61.40
40996;DHT22;26723;57.478;12.066;2023-05-07T10:43:02;19.80;62.50
40996;DHT22;26723;57.478;12.066;2023-05-07T10:46:24;19.90;61.90
40996;DHT22;26723;57.478;12.066;2023-05-07T10:50:21;19.70;61.10
40996;DHT22;26723;57.478;12.066;2023-05-07T10:53:44;20.00;65.20
40996;DHT22;26723;57.478;12.066;2023-05-07T10:57:34;20.00;62.00
40996;DHT22;26723;57.478;12.066;2023-05-07T11:00:58;20.00;62.20
40996;DHT22;26723;57.478;12.066;2023-05-07T11:04:20;19.70;61.50
40996;DHT22;26723;57.478;12.066;2023-05-07T11:07:54;19.70;63.30
40996;DHT22;26723;57.478;12.066;2023-05-07T11:11:10;19.60;62.00
40996;DHT22;26723;57.478;12.066;2023-05-07T11:14:47;19.90;61.60
40996;DHT22;26723;57.478;12.066;2023-05-07T11:18:05;19.60;60.90
40996;DHT22;26723;57.478;12.066;2023-05-07T11:21:35;19.60;61.10
40996;DHT22;26723;57.478;12.066;2023-05-07T11:25:02;19.60;62.10
40996;DHT22;26723;57.478;12.066;2023-05-07T11:28:11;19.60;62.30
40996;DHT22;26723;57.478;12.066;2023-05-07T11:31:30;19.60;61.90
40996;DHT22;26723;57.478;12.066;2023-05-07T11:34:40;19.40;60.20
40996;DHT22;26723;57.478;12.066;2023-05-07T11:37:49;19.10;59.70
40996;DHT22;26723;57.478;12.066;2023-05-07T11:40:59;18.90;63.30
40996;DHT22;26723;57.478;12.066;2023-05-07T11:44:09;19.00;62.80
40996;DHT22;26723;57.478;12.066;2023-05-07T11:47:20;18.70;60.50
40996;DHT22;26723;57.478;12.066;2023-05-07T11:50:29;18.40;62.60
40996;DHT22;26723;57.478;12.066;2023-05-07T11:53:39;18.40;63.50
40996;DHT22;26723;57.478;12.066;2023-05-07T11:56:48;17.90;60.40
40996;DHT22;26723;57.478;12.066;2023-05-07T11:59:59;18.20;62.20
40996;DHT22;26723;57.478;12.066;2023-05-07T12:03:20;18.20;60.50
40996;DHT22;26723;57.478;12.066;2023-05-07T12:06:29;17.80;62.70
40996;DHT22;26723;57.478;12.066;2023-05-07T12:09:38;17.70;62.20
40996;DHT22;26723;57.478;12.066;2023-05-07T12:12:47;17.60;64.00
40996;DHT22;26723;57.478;12.066;2023-05-07T12:15:56;17.60;66.60
40996;DHT22;26723;57.478;12.066;2023-05-07T12:19:06;17.40;65.40
40996;DHT22;26723;57.478;12.066;2023-05-07T12:22:16;17.30;65.40
40996;DHT22;26723;57.478;12.066;2023-05-07T12:25:25;17.40;67.10
40996;DHT22;26723;57.478;12.066;2023-05-07T12:28:36;17.30;66.50
40996;DHT22;26723;57.478;12.066;2023-05-07T12:31:46;17.00;69.20
40996;DHT22;26723;57.478;12.066;2023-05-07T12:34:56;17.00;69.80
40996;DHT22;26723;57.478;12.066;2023-05-07T12:38:08;16.60;71.40
40996;DHT22;26723;57.478;12.066;2023-05-07T12:41:16;16.80;72.80
40996;DHT22;26723;57.478;12.066;2023-05-07T12:44:28;16.90;73.80
40996;DHT22;26723;57.478;12.066;2023-05-07T12:47:37;16.90;73.60
40996;DHT22;26723;57.478;12.066;2023-05-07T12:50:50;16.90;73.90
40996;DHT22;26723;57.478;12.066;2023-05-07T12:53:59;16.80;74.60
40996;DHT22;26723;57.478;12.066;2023-05-07T12:57:08;16.60;75.80
40996;DHT22;26723;57.478;12.066;2023-05-07T13:00:17;16.40;77.30
40996;DHT22;26723;57.478;12.066;2023-05-07T13:03:28;16.10;77.60
40996;DHT22;26723;57.478;12.066;2023-05-07T13:06:38;16.20;77.30
40996;DHT22;26723;57.478;12.066;2023-05-07T13:09:49;16.20;77.70
40996;DHT22;26723;57.478;12.066;2023-05-07T13:12:57;16.10;78.10
40996;DHT22;26723;57.478;12.066;2023-05-07T13:16:07;16.00;79.20
40996;DHT22;26723;57.478;12.066;2023-05-07T13:19:15;15.90;83.20
40996;DHT22;26723;57.478;12.066;2023-05-07T13:22:26;15.70;84.70
40996;DHT22;26723;57.478;12.066;2023-05-07T13:25:34;15.80;84.60
40996;DHT22;26723;57.478;12.066;2023-05-07T13:28:45;15.60;81.40
40996;DHT22;26723;57.478;12.066;2023-05-07T13:31:54;15.60;82.90
40996;DHT22;26723;57.478;12.066;2023-05-07T13:35:03;15.60;83.00
40996;DHT22;26723;57.478;12.066;2023-05-07T13:38:13;15.60;82.40
40996;DHT22;26723;57.478;12.066;2023-05-07T13:41:27;15.60;84.10
40996;DHT22;26723;57.478;12.066;2023-05-07T13:44:36;15.50;85.10
40996;DHT22;26723;57.478;12.066;2023-05-07T13:47:44;15.60;84.60
40996;DHT22;26723;57.478;12.066;2023-05-07T13:50:53;15.70;85.20
40996;DHT22;26723;57.478;12.066;2023-05-07T13:54:03;15.70;85.40
40996;DHT22;26723;57.478;12.066;2023-05-07T13:57:13;15.60;86.10
40996;DHT22;26723;57.478;12.066;2023-05-07T14:00:21;15.60;83.80
40996;DHT22;26723;57.478;12.066;2023-05-07T14:03:30;15.60;85.00
40996;DHT22;26723;57.478;12.066;2023-05-07T14:06:39;15.70;84.90
40996;DHT22;26723;57.478;12.066;2023-05-07T14:09:48;15.70;83.70
40996;DHT22;26723;57.478;12.066;2023-05-07T14:12:57;15.60;83.20
40996;DHT22;26723;57.478;12.066;2023-05-07T14:16:05;15.50;84.00
40996;DHT22;26723;57.478;12.066;2023-05-07T14:19:14;15.40;83.50
40996;DHT22;26723;57.478;12.066;2023-05-07T14:22:23;15.40;83.60
40996;DHT22;26723;57.478;12.066;2023-05-07T14:25:33;15.40;86.50
40996;DHT22;26723;57.478;12.066;2023-05-07T14:28:42;15.50;85.60
40996;DHT22;26723;57.478;12.066;2023-05-07T14:31:53;15.60;86.50
40996;DHT22;26723;57.478;12.066;2023-05-07T14:35:02;15.60;86.70
40996;DHT22;26723;57.478;12.066;2023-05-07T14:38:10;15.60;85.60
40996;DHT22;26723;57.478;12.066;2023-05-07T14:41:22;15.80;87.70
40996;DHT22;26723;57.478;12.066;2023-05-07T14:44:31;15.80;85.90
40996;DHT22;26723;57.478;12.066;2023-05-07T14:47:39;15.60;84.00
40996;DHT22;26723;57.478;12.066;2023-05-07T14:50:48;15.50;85.50
40996;DHT22;26723;57.478;12.066;2023-05-07T14:53:59;15.60;86.60
40996;DHT22;26723;57.478;12.066;2023-05-07T14:57:10;15.70;87.00
40996;DHT22;26723;57.478;12.066;2023-05-07T15:00:21;15.80;87.50
40996;DHT22;26723;57.478;12.066;2023-05-07T15:03:30;15.80;87.90
40996;DHT22;26723;57.478;12.066;2023-05-07T15:06:39;15.80;87.60
40996;DHT22;26723;57.478;12.066;2023-05-07T15:09:47;15.90;87.60
40996;DHT22;26723;57.478;12.066;2023-05-07T15:12:58;15.80;86.60
40996;DHT22;26723;57.478;12.066;2023-05-07T15:16:07;15.80;87.10
40996;DHT22;26723;57.478;12.066;2023-05-07T15:19:16;15.90;86.80
40996;DHT22;26723;57.478;12.066;2023-05-07T15:22:29;15.80;87.30
40996;DHT22;26723;57.478;12.066;2023-05-07T15:25:38;15.90;86.30
40996;DHT22;26723;57.478;12.066;2023-05-07T15:28:48;15.80;85.70
40996;DHT22;26723;57.478;12.066;2023-05-07T15:31:57;15.80;85.60
40996;DHT22;26723;57.478;12.066;2023-05-07T15:35:07;15.60;84.20
40996;DHT22;26723;57.478;12.066;2023-05-07T15:38:16;15.70;87.40
40996;DHT22;26723;57.478;12.066;2023-05-07T15:41:25;15.90;86.10
40996;DHT22;26723;57.478;12.066;2023-05-07T15:44:45;15.90;86.90
40996;DHT22;26723;57.478;12.066;2023-05-07T15:48:18;15.80;88.10
40996;DHT22;26723;57.478;12.066;2023-05-07T15:51:27;15.60;85.70
40996;DHT22;26723;57.478;12.066;2023-05-07T15:54:36;15.60;87.00
40996;DHT22;26723;57.478;12.066;2023-05-07T15:57:45;15.70;87.70
40996;DHT22;26723;57.478;12.066;2023-05-07T16:00:56;15.60;87.60
40996;DHT22;26723;57.478;12.066;2023-05-07T16:04:06;15.50;87.50
40996;DHT22;26723;57.478;12.066;2023-05-07T16:07:16;15.50;85.50
40996;DHT22;26723;57.478;12.066;2023-05-07T16:10:25;15.50;88.30
40996;DHT22;26723;57.478;12.066;2023-05-07T16:13:37;15.50;88.40
40996;DHT22;26723;57.478;12.066;2023-05-07T16:16:48;15.40;90.20
40996;DHT22;26723;57.478;12.066;2023-05-07T16:19:56;15.40;90.00
40996;DHT22;26723;57.478;12.066;2023-05-07T16:23:05;15.50;89.90
40996;DHT22;26723;57.478;12.066;2023-05-07T16:26:14;15.50;90.00
40996;DHT22;26723;57.478;12.066;2023-05-07T16:29:25;15.50;90.20
40996;DHT22;26723;57.478;12.066;2023-05-07T16:32:35;15.40;90.80
40996;DHT22;26723;57.478;12.066;2023-05-07T16:35:43;15.40;90.40
40996;DHT22;26723;57.478;12.066;2023-05-07T16:38:53;15.40;90.60
40996;DHT22;26723;57.478;12.066;2023-05-07T16:42:02;15.40;90.00
40996;DHT22;26723;57.478;12.066;2023-05-07T16:45:10;15.30;90.40
40996;DHT22;26723;57.478;12.066;2023-05-07T16:48:25;15.20;91.20
40996;DHT22;26723;57.478;12.066;2023-05-07T16:51:36;15.10;90.60
40996;DHT22;26723;57.478;12.066;2023-05-07T16:54:49;15.20;91.00
40996;DHT22;26723;57.478;12.066;2023-05-07T16:57:58;15.20;91.00
40996;DHT22;26723;57.478;12.066;2023-05-07T17:01:07;15.20;90.80
40996;DHT22;26723;57.478;12.066;2023-05-07T17:04:20;15.20;91.40
40996;DHT22;26723;57.478;12.066;2023-05-07T17:07:30;15.10;91.80
40996;DHT22;26723;57.478;12.066;2023-05-07T17:10:40;15.10;92.80
40996;DHT22;26723;57.478;12.066;2023-05-07T17:13:48;15.00;92.20
40996;DHT22;26723;57.478;12.066;2023-05-07T17:16:58;15.00;92.20
40996;DHT22;26723;57.478;12.066;2023-05-07T17:20:12;15.00;92.30
40996;DHT22;26723;57.478;12.066;2023-05-07T17:23:21;15.00;93.00
40996;DHT22;26723;57.478;12.066;2023-05-07T17:26:30;15.00;93.20
40996;DHT22;26723;57.478;12.066;2023-05-07T17:29:41;14.90;92.90
40996;DHT22;26723;57.478;12.066;2023-05-07T17:32:49;14.90;92.70
40996;DHT22;26723;57.478;12.066;2023-05-07T17:35:59;14.80;92.90
40996;DHT22;26723;57.478;12.066;2023-05-07T17:39:09;14.70;93.30
40996;DHT22;26723;57.478;12.066;2023-05-07T17:42:17;14.70;93.60
40996;DHT22;26723;57.478;12.066;2023-05-07T17:45:26;14.70;93.80
40996;DHT22;26723;57.478;12.066;2023-05-07T17:48:34;14.60;93.60
40996;DHT22;26723;57.478;12.066;2023-05-07T17:51:44;14.60;93.50
40996;DHT22;26723;57.478;12.066;2023-05-07T17:55:01;14.60;93.50
40996;DHT22;26723;57.478;12.066;2023-05-07T17:58:16;14.60;93.60
40996;DHT22;26723;57.478;12.066;2023-05-07T18:02:01;14.50;93.50
40996;DHT22;26723;57.478;12.066;2023-05-07T18:05:10;14.50;94.30
40996;DHT22;26723;57.478;12.066;2023-05-07T18:08:24;14.50;94.20
40996;DHT22;26723;57.478;12.066;2023-05-07T18:11:35;14.50;94.00
40996;DHT22;26723;57.478;12.066;2023-05-07T18:14:44;14.40;94.90
40996;DHT22;26723;57.478;12.066;2023-05-07T18:17:54;14.30;95.10
40996;DHT22;26723;57.478;12.066;2023-05-07T18:21:02;14.30;95.10
40996;DHT22;26723;57.478;12.066;2023-05-07T18:24:15;14.20;96.20
40996;DHT22;26723;57.478;12.066;2023-05-07T18:27:26;14.10;96.50
40996;DHT22;26723;57.478;12.066;2023-05-07T18:30:35;14.10;96.90
40996;DHT22;26723;57.478;12.066;2023-05-07T18:33:44;14.00;97.70
40996;DHT22;26723;57.478;12.066;2023-05-07T18:36:52;13.90;98.00
40996;DHT22;26723;57.478;12.066;2023-05-07T18:40:04;13.80;98.20
40996;DHT22;26723;57.478;12.066;2023-05-07T18:43:13;13.70;99.10
40996;DHT22;26723;57.478;12.066;2023-05-07T18:46:22;13.60;99.90
40996;DHT22;26723;57.478;12.066;2023-05-07T18:49:31;13.50;99.60
40996;DHT22;26723;57.478;12.066;2023-05-07T18:52:40;13.40;99.90
40996;DHT22;26723;57.478;12.066;2023-05-07T18:55:50;13.30;99.90
40996;DHT22;26723;57.478;12.066;2023-05-07T18:59:00;13.20;99.90
40996;DHT22;26723;57.478;12.066;2023-05-07T19:02:08;13.00;99.90
40996;DHT22;26723;57.478;12.066;2023-05-07T19:05:20;12.90;99.90
40996;DHT22;26723;57.478;12.066;2023-05-07T19:08:29;12.80;99.90
40996;DHT22;26723;57.478;12.066;2023-05-07T19:11:39;12.70;99.90
40996;DHT22;26723;57.478;12.066;2023-05-07T19:14:48;12.60;99.90
40996;DHT22;26723;57.478;12.066;2023-05-07T19:18:04;12.50;99.90
40996;DHT22;26723;57.478;12.066;2023-05-07T19:21:14;12.40;99.90
40996;DHT22;26723;57.478;12.066;2023-05-07T19:24:22;12.30;99.90
40996;DHT22;26723;57.478;12.066;2023-05-07T19:27:32;12.20;99.90
40996;DHT22;26723;57.478;12.066;2023-05-07T19:30:45;12.00;99.90
40996;DHT22;26723;57.478;12.066;2023-05-07T19:33:55;11.90;99.90
40996;DHT22;26723;57.478;12.066;2023-05-07T19:37:04;11.80;99.90
40996;DHT22;26723;57.478;12.066;2023-05-07T19:40:13;11.70;99.90
40996;DHT22;26723;57.478;12.066;2023-05-07T19:43:23;11.60;99.90
40996;DHT22;26723;57.478;12.066;2023-05-07T19:46:31;11.50;99.90
40996;DHT22;26723;57.478;12.066;2023-05-07T19:49:43;11.30;99.90
40996;DHT22;26723;57.478;12.066;2023-05-07T19:52:51;11.20;99.90